R.l. Enterkin — WDD9628 — position and weather

sailwx.info

Track history (hours):
 
Tides and Currents Weather Stations Pressure Air Temp Water Temp Dewpoint Dewpoint Depression Visibility Wind Speed Wind Dir Waves Ship Positions

R.l. Enterkin

Owner: Great Lakes Dredge & Dock Company, LLC., Oak Brook, IL. More information available from US FCC via Universal Licensing System and Coast Guard Vessel Documentation Center.

Last reported at 2015-May-24 11:31 UTC. Time now 2015-May-24 19:23 UTC.
Position N 39°10' W 074°38'.

MMSI: 367314080.

Date/timePositionNaut miles runAvg speedWind from/ knotsBaromVisibWave heightAir tempDewpointWater temp
2015-May-24 11:31N 39°10' W 074°38'0 0.1
2015-May-24 10:34N 39°10' W 074°37'0 0.4
2015-May-24 09:33N 39°10' W 074°38'0 0.0
2015-May-24 08:33N 39°10' W 074°38'0 0.3
2015-May-24 07:33N 39°10' W 074°37'0 0.3
2015-May-24 06:33N 39°10' W 074°38'0 0.3
2015-May-24 05:34N 39°10' W 074°38'0 0.0
2015-May-24 04:33N 39°10' W 074°38'0 0.0
2015-May-24 02:24N 39°10' W 074°38'  
2015-May-20 03:27N 39°10' W 074°38'0 0.2
2015-May-20 01:33N 39°10' W 074°37'1 0.0
2015-May-19 13:19N 39°10' W 074°38'0 0.1
2015-May-19 12:34N 39°10' W 074°38'0 0.1
2015-May-19 11:32N 39°10' W 074°38'0 0.0
2015-May-19 10:29N 39°10' W 074°38'0 0.5
2015-May-19 09:26N 39°10' W 074°38'0 0.0
2015-May-19 08:31N 39°10' W 074°38'0 0.0
2015-May-19 07:31N 39°10' W 074°38'0 0.0
2015-May-19 06:32N 39°10' W 074°38'0 0.0
2015-May-19 04:14N 39°10' W 074°38'0 0.0
2015-May-19 01:27N 39°10' W 074°38'0 0.3
2015-May-19 00:12N 39°10' W 074°38'0 0.4
2015-May-18 23:05N 39°10' W 074°38'0 0.0
2015-May-18 21:33N 39°10' W 074°38'0 0.0
2015-May-18 20:09N 39°10' W 074°38'0 0.0
2015-May-18 12:27N 39°10' W 074°38'0 0.2
2015-May-18 10:29N 39°10' W 074°38'0 0.2
2015-May-18 09:22N 39°10' W 074°38'0 0.2
2015-May-18 08:21N 39°10' W 074°38'0 0.0
2015-May-17 05:06N 39°10' W 074°38'0 0.2
2015-May-17 04:33N 39°10' W 074°38'0 0.0
2015-May-16 05:21N 39°10' W 074°38'0 0.1
2015-May-16 04:10N 39°10' W 074°38'0 0.0
2015-May-16 03:33N 39°10' W 074°38'0 0.0
2015-May-16 02:33N 39°10' W 074°38'0 0.0
2015-May-16 01:28N 39°10' W 074°38'1 0.1
2015-May-15 12:33N 39°11' W 074°37'1 0.8
2015-May-15 11:34N 39°10' W 074°37'1 1.0
2015-May-15 10:33N 39°09' W 074°37'1 0.4
2015-May-15 09:06N 39°09' W 074°36'4 1.9
2015-May-15 07:12N 39°06' W 074°40'3 4.5
2015-May-15 06:33N 39°04' W 074°42'5 4.4
2015-May-15 05:31N 39°00' W 074°45'5 4.4
2015-May-15 04:28N 38°57' W 074°49'3 2.6
2015-May-15 03:29N 38°57' W 074°53'0 0.0
2015-May-15 01:30N 38°57' W 074°53'0 0.0
2015-May-15 00:20N 38°57' W 074°53'0 0.0
2015-May-14 21:28N 38°57' W 074°53'1 0.9
2015-May-14 20:09N 38°57' W 074°54'1 2.3
2015-May-14 19:31N 38°57' W 074°52'0 0.2
2015-May-14 18:33N 38°57' W 074°53'1 0.1
2015-May-14 11:33N 38°57' W 074°54'  
Track history (hours):
 
Tides and Currents Weather Stations Pressure Air Temp Water Temp Dewpoint Dewpoint Depression Visibility Wind Speed Wind Dir Waves Ship Positions

R.l. Enterkin

Owner: Great Lakes Dredge & Dock Company, LLC., Oak Brook, IL. More information available from US FCC via Universal Licensing System and Coast Guard Vessel Documentation Center.

Last reported at 2015-May-24 11:31 UTC. Time now 2015-May-24 19:23 UTC.
Position N 39°10' W 074°38'.

MMSI: 367314080.

Date/timePositionNaut miles runAvg speedWind from/ knotsBaromVisibWave heightAir tempDewpointWater temp
2015-May-24 11:31N 39°10' W 074°38'0 0.1
2015-May-24 10:34N 39°10' W 074°37'0 0.4
2015-May-24 09:33N 39°10' W 074°38'0 0.0
2015-May-24 08:33N 39°10' W 074°38'0 0.3
2015-May-24 07:33N 39°10' W 074°37'0 0.3
2015-May-24 06:33N 39°10' W 074°38'0 0.3
2015-May-24 05:34N 39°10' W 074°38'0 0.0
2015-May-24 04:33N 39°10' W 074°38'0 0.0
2015-May-24 02:24N 39°10' W 074°38'  
2015-May-20 03:27N 39°10' W 074°38'0 0.2
2015-May-20 01:33N 39°10' W 074°37'1 0.0
2015-May-19 13:19N 39°10' W 074°38'0 0.1
2015-May-19 12:34N 39°10' W 074°38'0 0.1
2015-May-19 11:32N 39°10' W 074°38'0 0.0
2015-May-19 10:29N 39°10' W 074°38'0 0.5
2015-May-19 09:26N 39°10' W 074°38'0 0.0
2015-May-19 08:31N 39°10' W 074°38'0 0.0
2015-May-19 07:31N 39°10' W 074°38'0 0.0
2015-May-19 06:32N 39°10' W 074°38'0 0.0
2015-May-19 04:14N 39°10' W 074°38'0 0.0
2015-May-19 01:27N 39°10' W 074°38'0 0.3
2015-May-19 00:12N 39°10' W 074°38'0 0.4
2015-May-18 23:05N 39°10' W 074°38'0 0.0
2015-May-18 21:33N 39°10' W 074°38'0 0.0
2015-May-18 20:09N 39°10' W 074°38'0 0.0
2015-May-18 12:27N 39°10' W 074°38'0 0.2
2015-May-18 10:29N 39°10' W 074°38'0 0.2
2015-May-18 09:22N 39°10' W 074°38'0 0.2
2015-May-18 08:21N 39°10' W 074°38'0 0.0
2015-May-17 05:06N 39°10' W 074°38'0 0.2
2015-May-17 04:33N 39°10' W 074°38'0 0.0
2015-May-16 05:21N 39°10' W 074°38'0 0.1
2015-May-16 04:10N 39°10' W 074°38'0 0.0
2015-May-16 03:33N 39°10' W 074°38'0 0.0
2015-May-16 02:33N 39°10' W 074°38'0 0.0
2015-May-16 01:28N 39°10' W 074°38'1 0.1
2015-May-15 12:33N 39°11' W 074°37'1 0.8
2015-May-15 11:34N 39°10' W 074°37'1 1.0
2015-May-15 10:33N 39°09' W 074°37'1 0.4
2015-May-15 09:06N 39°09' W 074°36'4 1.9
2015-May-15 07:12N 39°06' W 074°40'3 4.5
2015-May-15 06:33N 39°04' W 074°42'5 4.4
2015-May-15 05:31N 39°00' W 074°45'5 4.4
2015-May-15 04:28N 38°57' W 074°49'3 2.6
2015-May-15 03:29N 38°57' W 074°53'0 0.0
2015-May-15 01:30N 38°57' W 074°53'0 0.0
2015-May-15 00:20N 38°57' W 074°53'0 0.0
2015-May-14 21:28N 38°57' W 074°53'1 0.9
2015-May-14 20:09N 38°57' W 074°54'1 2.3
2015-May-14 19:31N 38°57' W 074°52'0 0.2
2015-May-14 18:33N 38°57' W 074°53'1 0.1
2015-May-14 11:33N 38°57' W 074°54'  

Dump ship's entire track history